createdAt,value
2022-08-17T00:00:43.901Z,21.60
2022-08-17T00:03:48.735Z,21.60
2022-08-17T00:06:36.828Z,21.60
2022-08-17T00:09:30.761Z,21.60
2022-08-17T00:12:40.551Z,21.60
2022-08-17T00:15:33.801Z,21.70
2022-08-17T00:18:58.229Z,21.70
2022-08-17T00:22:33.213Z,21.80
2022-08-17T00:24:50.864Z,21.80
2022-08-17T00:27:44.825Z,21.80
2022-08-17T00:30:50.794Z,21.80
2022-08-17T00:33:46.848Z,21.80
2022-08-17T00:36:34.161Z,21.70
2022-08-17T00:39:27.882Z,21.60
2022-08-17T00:42:17.356Z,21.60
2022-08-17T00:45:12.824Z,21.50
2022-08-17T00:48:06.806Z,21.50
2022-08-17T00:51:43.809Z,21.40
2022-08-17T00:54:41.712Z,21.40
2022-08-17T00:57:39.862Z,21.40
2022-08-17T01:00:40.921Z,21.40
2022-08-17T01:03:35.838Z,21.30
2022-08-17T01:06:25.067Z,21.30
2022-08-17T01:09:20.837Z,21.30
2022-08-17T01:12:09.054Z,21.20
2022-08-17T01:15:02.865Z,21.20
2022-08-17T01:17:50.219Z,21.20
2022-08-17T01:21:01.878Z,21.20
2022-08-17T01:23:49.207Z,21.20
2022-08-17T01:26:44.899Z,21.20
2022-08-17T01:29:33.172Z,21.20
2022-08-17T01:32:26.923Z,21.30
2022-08-17T01:35:14.607Z,21.30
2022-08-17T01:38:07.869Z,21.30
2022-08-17T01:40:58.337Z,21.40
2022-08-17T01:43:58.010Z,21.40
2022-08-17T01:46:45.174Z,21.50
2022-08-17T01:49:38.899Z,21.50
2022-08-17T01:52:32.977Z,21.30
2022-08-17T01:55:27.405Z,21.20
2022-08-17T01:58:21.919Z,21.00
2022-08-17T02:01:10.426Z,20.90
2022-08-17T02:04:04.973Z,20.90
2022-08-17T02:06:59.149Z,20.80
2022-08-17T02:09:53.974Z,20.70
2022-08-17T02:12:41.424Z,20.60
2022-08-17T02:15:36.002Z,20.60
2022-08-17T02:18:23.152Z,20.60
2022-08-17T02:21:16.944Z,20.50
2022-08-17T02:24:06.947Z,20.50
2022-08-17T02:27:01.009Z,20.40
2022-08-17T02:29:48.123Z,20.40
2022-08-17T02:32:42.002Z,20.30
2022-08-17T02:35:43.994Z,20.30
2022-08-17T02:38:39.023Z,20.20
2022-08-17T02:41:26.170Z,20.10
2022-08-17T02:44:39.198Z,20.00
2022-08-17T02:47:34.013Z,20.00
2022-08-17T02:50:24.007Z,20.00
2022-08-17T02:53:18.047Z,20.00
2022-08-17T02:56:11.995Z,20.00
2022-08-17T02:58:59.090Z,20.10
2022-08-17T03:01:53.094Z,20.10
2022-08-17T03:04:47.070Z,20.00
2022-08-17T03:07:34.328Z,19.90
2022-08-17T03:10:29.025Z,19.90
2022-08-17T03:13:16.313Z,19.80
2022-08-17T03:16:11.062Z,19.90
2022-08-17T03:18:58.152Z,19.90
2022-08-17T03:21:55.081Z,20.00
2022-08-17T03:24:42.766Z,20.00
2022-08-17T03:27:36.099Z,20.00
2022-08-17T03:30:28.105Z,20.00
2022-08-17T03:33:23.088Z,20.00
2022-08-17T03:36:17.101Z,20.00
2022-08-17T03:39:04.880Z,20.00
2022-08-17T03:41:58.067Z,20.00
2022-08-17T03:44:49.475Z,20.00
2022-08-17T03:48:02.071Z,20.00
2022-08-17T03:51:15.125Z,20.00
2022-08-17T03:54:35.116Z,20.00
2022-08-17T03:57:29.144Z,20.00
2022-08-17T04:00:17.134Z,19.90
2022-08-17T04:03:11.126Z,19.90
2022-08-17T04:05:58.177Z,19.90
2022-08-17T04:08:59.129Z,19.90
2022-08-17T04:11:46.343Z,19.90
2022-08-17T04:14:53.365Z,19.90
2022-08-17T04:17:48.276Z,19.90
2022-08-17T04:20:35.560Z,19.90
2022-08-17T04:23:29.173Z,19.80
2022-08-17T04:26:53.261Z,19.90
2022-08-17T04:29:54.605Z,19.80
2022-08-17T04:33:05.915Z,19.80
2022-08-17T04:36:05.176Z,19.80
2022-08-17T04:38:52.224Z,19.90
2022-08-17T04:42:04.168Z,19.80
2022-08-17T04:44:51.239Z,19.90
2022-08-17T04:47:48.215Z,19.80
2022-08-17T04:50:43.215Z,19.90
2022-08-17T04:53:30.267Z,19.90
2022-08-17T04:56:24.188Z,19.80
2022-08-17T04:59:27.240Z,19.80
2022-08-17T05:02:14.486Z,19.80
2022-08-17T05:05:08.228Z,19.80
2022-08-17T05:07:58.843Z,19.80
2022-08-17T05:10:54.241Z,19.80
2022-08-17T05:13:41.360Z,19.80
2022-08-17T05:16:36.220Z,19.80
2022-08-17T05:19:23.351Z,19.90
2022-08-17T05:22:17.229Z,19.80
2022-08-17T05:25:18.241Z,19.90
2022-08-17T05:28:27.562Z,19.90
2022-08-17T05:31:22.360Z,19.90
2022-08-17T05:34:16.256Z,19.90
2022-08-17T05:37:10.294Z,20.00
2022-08-17T05:40:04.370Z,19.90
2022-08-17T05:42:59.316Z,19.90
2022-08-17T05:46:11.894Z,20.00
2022-08-17T05:49:14.309Z,20.00
2022-08-17T05:52:38.784Z,20.10
2022-08-17T05:55:40.293Z,20.10
2022-08-17T05:58:43.261Z,20.10
2022-08-17T06:01:58.098Z,20.20
2022-08-17T06:04:54.292Z,20.20
2022-08-17T06:08:20.303Z,20.30
2022-08-17T06:11:27.284Z,20.30
2022-08-17T06:14:42.317Z,20.30
2022-08-17T06:17:37.328Z,20.40
2022-08-17T06:20:27.821Z,20.40
2022-08-17T06:23:33.314Z,20.40
2022-08-17T06:26:42.749Z,20.40
2022-08-17T06:29:55.339Z,20.50
2022-08-17T06:32:52.605Z,20.60
2022-08-17T06:35:49.910Z,20.80
2022-08-17T06:39:05.361Z,20.90
2022-08-17T06:43:02.293Z,21.00
2022-08-17T06:45:39.017Z,21.10
2022-08-17T06:48:41.365Z,21.10
2022-08-17T06:51:41.412Z,21.20
2022-08-17T06:54:47.147Z,21.20
2022-08-17T06:57:45.370Z,21.30
2022-08-17T07:00:47.607Z,21.40
2022-08-17T07:03:37.816Z,21.40
2022-08-17T07:06:39.460Z,21.40
2022-08-17T07:09:40.435Z,21.50
2022-08-17T07:12:45.409Z,21.60
2022-08-17T07:15:48.467Z,21.60
2022-08-17T07:18:42.423Z,21.70
2022-08-17T07:22:05.516Z,21.70
2022-08-17T07:25:03.183Z,21.70
2022-08-17T07:28:02.418Z,21.70
2022-08-17T07:31:01.454Z,21.80
2022-08-17T07:34:14.454Z,21.80
2022-08-17T07:37:12.493Z,21.70
2022-08-17T07:40:16.004Z,21.70
2022-08-17T07:43:22.355Z,21.70
2022-08-17T07:46:49.506Z,21.80
2022-08-17T07:49:40.285Z,21.90
2022-08-17T07:52:51.186Z,21.90
2022-08-17T07:55:48.579Z,22.00
2022-08-17T07:58:35.752Z,22.00
2022-08-17T08:01:39.697Z,22.00
2022-08-17T08:05:01.834Z,22.00
2022-08-17T08:08:25.485Z,22.00
2022-08-17T08:11:16.564Z,22.00
2022-08-17T08:14:37.526Z,22.00
2022-08-17T08:17:35.669Z,22.00
2022-08-17T08:21:01.596Z,22.10
2022-08-17T08:23:54.459Z,22.20
2022-08-17T08:27:01.592Z,22.20
2022-08-17T08:30:06.942Z,22.30
2022-08-17T08:33:23.591Z,22.30
2022-08-17T08:36:56.871Z,22.20
2022-08-17T08:40:09.597Z,22.10
2022-08-17T08:43:27.597Z,22.10
2022-08-17T08:46:36.548Z,22.20
2022-08-17T08:50:02.063Z,22.30
2022-08-17T08:53:14.548Z,22.40
2022-08-17T08:56:24.418Z,22.40
2022-08-17T08:59:42.058Z,22.40
2022-08-17T09:02:56.622Z,22.50
2022-08-17T09:06:05.578Z,22.60
2022-08-17T09:09:39.614Z,22.60
2022-08-17T09:12:51.599Z,22.60
2022-08-17T09:15:51.628Z,22.60
2022-08-17T09:19:02.653Z,22.50
2022-08-17T09:21:55.535Z,22.50
2022-08-17T09:25:15.611Z,22.50
2022-08-17T09:28:16.811Z,22.60
2022-08-17T09:31:22.623Z,22.60
2022-08-17T09:34:22.224Z,22.60
2022-08-17T09:37:35.705Z,22.60
2022-08-17T09:40:39.564Z,22.70
2022-08-17T09:43:43.653Z,22.60
2022-08-17T09:46:39.257Z,22.40
2022-08-17T09:49:45.674Z,21.90
2022-08-17T09:52:33.130Z,21.40
2022-08-17T09:55:28.676Z,21.00
2022-08-17T09:58:22.876Z,20.80
2022-08-17T10:01:49.699Z,20.60
2022-08-17T10:05:00.679Z,20.70
2022-08-17T10:08:03.005Z,20.70
2022-08-17T10:11:17.703Z,20.70
2022-08-17T10:14:37.382Z,20.70
2022-08-17T10:17:52.703Z,20.70
2022-08-17T10:21:14.841Z,20.60
2022-08-17T10:24:32.705Z,20.60
2022-08-17T10:27:29.723Z,20.50
2022-08-17T10:30:27.768Z,20.60
2022-08-17T10:33:24.683Z,20.80
2022-08-17T10:36:44.823Z,21.00
2022-08-17T10:39:52.640Z,21.20
2022-08-17T10:43:03.785Z,21.30
2022-08-17T10:46:21.308Z,21.50
2022-08-17T10:49:20.802Z,21.60
2022-08-17T10:52:26.780Z,21.70
2022-08-17T10:55:24.760Z,21.70
2022-08-17T10:58:22.006Z,21.80
2022-08-17T11:01:18.834Z,21.90
2022-08-17T11:04:18.123Z,21.90
2022-08-17T11:07:54.770Z,22.10
2022-08-17T11:10:53.775Z,22.20
2022-08-17T11:14:17.832Z,22.50
2022-08-17T11:17:16.581Z,22.70
2022-08-17T11:20:31.800Z,22.80
2022-08-17T11:23:51.819Z,22.90
2022-08-17T11:26:47.621Z,22.90
2022-08-17T11:29:58.126Z,22.90
2022-08-17T11:32:54.460Z,22.80
2022-08-17T11:36:04.846Z,22.70
2022-08-17T11:38:57.856Z,22.60
2022-08-17T11:42:09.853Z,22.40
2022-08-17T11:45:09.913Z,22.20
2022-08-17T11:48:28.180Z,22.00
2022-08-17T11:51:40.849Z,21.90
2022-08-17T11:54:33.843Z,21.80
2022-08-17T11:57:33.858Z,21.80
2022-08-17T12:00:52.877Z,21.70
2022-08-17T12:03:42.407Z,21.70
2022-08-17T12:06:53.879Z,21.60
2022-08-17T12:09:45.598Z,21.40
2022-08-17T12:12:41.884Z,21.30
2022-08-17T12:15:37.227Z,21.20
2022-08-17T12:18:34.895Z,21.10
2022-08-17T12:21:31.954Z,21.00
2022-08-17T12:25:16.134Z,20.90
2022-08-17T12:28:11.276Z,20.90
2022-08-17T12:31:05.934Z,20.80
2022-08-17T12:34:00.996Z,20.70
2022-08-17T12:36:57.954Z,20.40
2022-08-17T12:40:06.374Z,20.20
2022-08-17T12:43:01.996Z,20.10
2022-08-17T12:46:13.227Z,20.10
2022-08-17T12:49:19.936Z,20.10
2022-08-17T12:52:27.664Z,20.20
2022-08-17T12:55:32.545Z,20.30
2022-08-17T12:58:25.247Z,20.40
2022-08-17T13:01:23.972Z,20.40
2022-08-17T13:04:20.981Z,20.50
2022-08-17T13:07:08.111Z,20.60
2022-08-17T13:10:02.022Z,20.70
2022-08-17T13:12:57.954Z,20.80
2022-08-17T13:16:04.028Z,21.00
2022-08-17T13:18:55.477Z,21.00
2022-08-17T13:21:56.037Z,21.10
2022-08-17T13:24:55.058Z,21.20
2022-08-17T13:27:50.122Z,21.20
2022-08-17T13:30:37.809Z,21.30
2022-08-17T13:33:44.901Z,21.30
2022-08-17T13:36:40.069Z,21.30
2022-08-17T13:39:41.588Z,21.30
2022-08-17T13:42:51.728Z,21.30
2022-08-17T13:45:53.075Z,21.30
2022-08-17T13:48:40.533Z,21.30
2022-08-17T13:51:39.022Z,21.20
2022-08-17T13:54:27.830Z,21.20
2022-08-17T13:57:32.108Z,21.20
2022-08-17T14:00:31.019Z,21.20
2022-08-17T14:03:26.262Z,21.30
2022-08-17T14:06:13.370Z,21.30
2022-08-17T14:09:37.225Z,21.20
2022-08-17T14:12:33.122Z,21.10
2022-08-17T14:15:24.442Z,21.10
2022-08-17T14:18:57.092Z,21.00
2022-08-17T14:21:46.503Z,21.00
2022-08-17T14:24:45.050Z,21.10
2022-08-17T14:27:34.077Z,21.00
2022-08-17T14:30:42.119Z,21.00
2022-08-17T14:33:29.656Z,21.00
2022-08-17T14:36:23.091Z,20.90
2022-08-17T14:39:19.163Z,20.80
2022-08-17T14:42:06.471Z,20.80
2022-08-17T14:45:01.159Z,20.80
2022-08-17T14:47:55.162Z,20.90
2022-08-17T14:50:51.133Z,20.90
2022-08-17T14:53:38.446Z,21.00
2022-08-17T14:56:38.088Z,21.00
2022-08-17T14:59:32.079Z,21.00
2022-08-17T15:02:29.656Z,21.10
2022-08-17T15:05:17.958Z,21.20
2022-08-17T15:08:12.148Z,21.30
2022-08-17T15:10:59.486Z,21.30
2022-08-17T15:13:55.197Z,21.30
2022-08-17T15:16:49.272Z,21.20
2022-08-17T15:19:43.238Z,21.20
2022-08-17T15:22:37.180Z,21.10
2022-08-17T15:25:27.733Z,21.00
2022-08-17T15:28:22.210Z,20.90
2022-08-17T15:31:09.519Z,20.80
2022-08-17T15:34:03.332Z,20.80
2022-08-17T15:36:54.921Z,20.90
2022-08-17T15:39:48.356Z,21.00
2022-08-17T15:42:42.275Z,21.20
2022-08-17T15:45:31.080Z,21.30
2022-08-17T15:48:25.214Z,21.40
2022-08-17T15:51:20.165Z,21.40
2022-08-17T15:54:19.033Z,21.40
2022-08-17T15:57:09.797Z,21.30
2022-08-17T16:00:04.222Z,21.30
2022-08-17T16:03:44.256Z,21.30
2022-08-17T16:06:07.278Z,21.30
2022-08-17T16:08:57.620Z,21.40
2022-08-17T16:11:55.326Z,21.50
2022-08-17T16:14:50.309Z,21.50
2022-08-17T16:17:39.503Z,21.60
2022-08-17T16:20:34.305Z,21.60
2022-08-17T16:23:21.444Z,21.70
2022-08-17T16:26:15.278Z,21.80
2022-08-17T16:29:12.267Z,21.80
2022-08-17T16:32:20.280Z,21.80
2022-08-17T16:35:28.287Z,21.80
2022-08-17T16:38:22.369Z,21.70
2022-08-17T16:41:16.324Z,21.60
2022-08-17T16:44:04.314Z,21.60
2022-08-17T16:46:58.359Z,21.60
2022-08-17T16:49:49.330Z,21.60
2022-08-17T16:52:44.383Z,21.60
2022-08-17T16:55:31.669Z,21.60
2022-08-17T16:58:25.326Z,21.60
2022-08-17T17:01:20.641Z,21.60
2022-08-17T17:04:14.698Z,21.60
2022-08-17T17:07:41.395Z,21.60
2022-08-17T17:10:35.836Z,21.50
2022-08-17T17:13:37.343Z,21.50
2022-08-17T17:16:48.884Z,21.50
2022-08-17T17:20:24.407Z,21.40
2022-08-17T17:23:39.432Z,21.50
2022-08-17T17:26:44.529Z,21.50
2022-08-17T17:29:50.428Z,21.50
2022-08-17T17:32:49.164Z,21.50
2022-08-17T17:35:54.390Z,21.50
2022-08-17T17:38:55.637Z,21.40
2022-08-17T17:42:00.405Z,21.40
2022-08-17T17:45:00.396Z,21.40
2022-08-17T17:47:48.205Z,21.40
2022-08-17T17:50:51.394Z,21.40
2022-08-17T17:54:03.379Z,21.40
2022-08-17T17:57:05.417Z,21.40
2022-08-17T18:00:20.503Z,21.40
2022-08-17T18:03:48.422Z,21.40
2022-08-17T18:06:50.605Z,21.40
2022-08-17T18:10:01.205Z,21.40
2022-08-17T18:13:14.593Z,21.40
2022-08-17T18:16:03.591Z,21.40
2022-08-17T18:18:58.543Z,21.30
2022-08-17T18:21:56.461Z,21.20
2022-08-17T18:24:53.495Z,21.10
2022-08-17T18:27:57.658Z,20.90
2022-08-17T18:30:44.752Z,20.80
2022-08-17T18:33:38.579Z,20.70
2022-08-17T18:36:32.769Z,20.60
2022-08-17T18:39:32.571Z,20.50
2022-08-17T18:42:32.612Z,20.50
2022-08-17T18:45:38.075Z,20.40
2022-08-17T18:48:58.855Z,20.40
2022-08-17T18:51:53.534Z,20.30
2022-08-17T18:54:59.287Z,20.30
2022-08-17T18:58:06.552Z,20.30
2022-08-17T19:00:53.740Z,20.20
2022-08-17T19:03:49.588Z,20.20
2022-08-17T19:06:44.656Z,20.00
2022-08-17T19:09:36.636Z,20.00
2022-08-17T19:12:43.574Z,19.80
2022-08-17T19:15:36.967Z,19.70
2022-08-17T19:18:45.615Z,19.70
2022-08-17T19:21:53.567Z,19.70
2022-08-17T19:24:47.962Z,19.60
2022-08-17T19:27:57.291Z,19.60
2022-08-17T19:30:51.557Z,19.70
2022-08-17T19:33:48.146Z,19.70
2022-08-17T19:36:49.712Z,19.70
2022-08-17T19:40:05.637Z,19.80
2022-08-17T19:43:29.559Z,19.80
2022-08-17T19:46:35.663Z,19.80
2022-08-17T19:49:45.596Z,19.80
2022-08-17T19:52:38.734Z,19.80
2022-08-17T19:55:38.610Z,19.70
2022-08-17T19:58:52.552Z,19.70
2022-08-17T20:02:09.651Z,19.60
2022-08-17T20:05:08.605Z,19.60
2022-08-17T20:08:11.633Z,19.70
2022-08-17T20:11:21.625Z,19.60
2022-08-17T20:14:14.540Z,19.60
2022-08-17T20:17:09.654Z,19.70
2022-08-17T20:20:32.638Z,19.70
2022-08-17T20:23:28.623Z,19.70
2022-08-17T20:26:38.652Z,19.70
2022-08-17T20:29:40.817Z,19.70
2022-08-17T20:32:39.720Z,19.70
2022-08-17T20:35:32.833Z,19.70
2022-08-17T20:39:03.670Z,19.60
2022-08-17T20:42:17.693Z,19.60
2022-08-17T20:45:26.216Z,19.60
2022-08-17T20:48:37.521Z,19.50
2022-08-17T20:51:44.687Z,19.50
2022-08-17T20:54:57.722Z,19.40
2022-08-17T20:57:53.829Z,19.40
2022-08-17T21:00:50.778Z,19.40
2022-08-17T21:03:51.046Z,19.40
2022-08-17T21:07:25.715Z,19.40
2022-08-17T21:10:35.594Z,19.40
2022-08-17T21:13:45.716Z,19.40
2022-08-17T21:17:05.709Z,19.40
2022-08-17T21:20:15.624Z,19.40
2022-08-17T21:23:37.712Z,19.40
2022-08-17T21:26:31.057Z,19.30
2022-08-17T21:29:39.066Z,19.20
2022-08-17T21:32:36.750Z,19.20
2022-08-17T21:35:29.739Z,19.20
2022-08-17T21:38:26.760Z,19.20
2022-08-17T21:41:35.436Z,19.20
2022-08-17T21:44:45.758Z,19.20
2022-08-17T21:47:39.768Z,19.20
2022-08-17T21:50:33.794Z,19.20
2022-08-17T21:53:45.799Z,19.10
2022-08-17T21:56:39.425Z,19.10
2022-08-17T21:59:40.799Z,19.10
2022-08-17T22:02:36.954Z,19.00
2022-08-17T22:05:45.862Z,19.10
2022-08-17T22:08:32.961Z,19.00
2022-08-17T22:11:26.802Z,19.00
2022-08-17T22:14:24.811Z,19.00
2022-08-17T22:17:25.814Z,19.00
2022-08-17T22:20:26.811Z,19.00
2022-08-17T22:23:33.318Z,18.90
2022-08-17T22:26:28.896Z,18.90
2022-08-17T22:29:53.369Z,18.90
2022-08-17T22:32:47.744Z,18.90
2022-08-17T22:35:49.849Z,18.90
2022-08-17T22:38:41.466Z,19.00
2022-08-17T22:42:00.945Z,19.00
2022-08-17T22:44:50.813Z,19.10
2022-08-17T22:47:47.967Z,19.10
2022-08-17T22:50:35.224Z,19.20
2022-08-17T22:53:48.855Z,19.20
2022-08-17T22:57:12.706Z,19.20
2022-08-17T23:00:06.909Z,19.20
2022-08-17T23:03:33.899Z,19.20
2022-08-17T23:06:21.064Z,19.20
2022-08-17T23:09:14.917Z,19.20
2022-08-17T23:12:05.933Z,19.20
2022-08-17T23:15:06.903Z,19.20
2022-08-17T23:17:54.180Z,19.20
2022-08-17T23:20:47.907Z,19.20
2022-08-17T23:23:41.932Z,19.20
2022-08-17T23:26:29.944Z,19.20
2022-08-17T23:29:27.946Z,19.20
2022-08-17T23:32:17.641Z,19.20
2022-08-17T23:35:11.984Z,19.20
2022-08-17T23:37:59.496Z,19.10
2022-08-17T23:40:52.988Z,19.10
2022-08-17T23:43:41.153Z,19.10
2022-08-17T23:46:34.926Z,19.10
2022-08-17T23:49:24.339Z,19.10
2022-08-17T23:52:20.938Z,19.10
2022-08-17T23:55:15.019Z,19.10
2022-08-17T23:58:10.949Z,19.10
